Alger, Ohio
Current Conditions -  °F | °C
As of 2:53 AM on Friday 24 Oct 2014 (Local Time) from KAOH Reporting Station
Haze Haze  
Wind Chill: 40°   Ceiling: Unl
Heat Index: 40°   Visibility: 6mi
Dew Point: 37°   Wind: 3mph
Humidity: 89%   Direction: 170°S
Pressure: 30.1"   Gusts: NA
Location:  40.71°N, 83.84°W
Report Text: KAOH 240653Z AUTO 17003KT 6SM BR CLR 04/03 A3010 RMK AO2 SLP196 T00440028
Loading
Personal Weather Stations






























Interactive Weather Map
Tropical Storm Tracking
New forecast layout! Learn more

10-Day Weather Forecast

Advertisements
Track Severe Weather on mobile